createdAt,value
2018-08-22T00:03:42.469Z,26.77
2018-08-22T00:07:45.150Z,7.80
2018-08-22T00:11:47.776Z,22.67
2018-08-22T00:15:50.414Z,5.87
2018-08-22T00:19:53.032Z,4.20
2018-08-22T00:23:55.662Z,4.97
2018-08-22T00:27:58.218Z,5.37
2018-08-22T00:32:00.789Z,4.00
2018-08-22T00:36:03.420Z,4.87
2018-08-22T00:40:06.042Z,2.50
2018-08-22T00:44:08.536Z,6.20
2018-08-22T00:48:11.070Z,5.87
2018-08-22T00:52:13.721Z,5.93
2018-08-22T00:56:16.346Z,9.23
2018-08-22T01:00:18.960Z,5.70
2018-08-22T01:04:21.567Z,11.23
2018-08-22T01:08:24.262Z,16.27
2018-08-22T01:12:26.842Z,12.40
2018-08-22T01:16:29.426Z,4.73
2018-08-22T01:20:32.079Z,37.63
2018-08-22T01:24:34.650Z,24.53
2018-08-22T01:28:37.167Z,12.53
2018-08-22T01:32:39.823Z,19.07
2018-08-22T01:36:42.433Z,6.63
2018-08-22T01:40:45.026Z,8.53
2018-08-22T01:44:47.569Z,11.40
2018-08-22T01:48:50.366Z,7.67
2018-08-22T01:52:52.923Z,9.90
2018-08-22T01:56:55.475Z,5.63
2018-08-22T02:00:58.017Z,9.87
2018-08-22T02:05:00.551Z,4.73
2018-08-22T02:09:04.280Z,6.80
2018-08-22T02:13:06.837Z,3.33
2018-08-22T02:17:09.432Z,5.50
2018-08-22T02:21:12.006Z,3.30
2018-08-22T02:25:14.668Z,5.60
2018-08-22T02:29:17.184Z,4.90
2018-08-22T02:33:19.853Z,4.57
2018-08-22T02:37:22.598Z,3.40
2018-08-22T02:41:25.211Z,8.67
2018-08-22T02:45:27.837Z,7.50
2018-08-22T02:49:30.504Z,17.07
2018-08-22T02:53:33.061Z,6.10
2018-08-22T02:57:35.652Z,6.43
2018-08-22T03:01:38.303Z,5.67
2018-08-22T03:05:40.857Z,10.83
2018-08-22T03:09:43.442Z,8.27
2018-08-22T03:13:46.004Z,8.33
2018-08-22T03:17:48.628Z,6.37
2018-08-22T03:21:51.235Z,4.10
2018-08-22T03:25:53.767Z,6.13
2018-08-22T03:29:56.297Z,5.90
2018-08-22T03:33:58.840Z,5.70
2018-08-22T03:38:01.428Z,10.03
2018-08-22T03:42:04.044Z,4.47
2018-08-22T03:46:06.659Z,3.63
2018-08-22T03:50:09.273Z,6.07
2018-08-22T03:54:11.827Z,5.53
2018-08-22T03:58:14.428Z,5.73
2018-08-22T04:02:17.048Z,5.27
2018-08-22T04:06:19.637Z,3.47
2018-08-22T04:10:22.220Z,3.10
2018-08-22T04:14:24.938Z,3.80
2018-08-22T04:18:27.564Z,4.50
2018-08-22T04:22:30.201Z,5.93
2018-08-22T04:26:32.844Z,4.37
2018-08-22T04:30:35.499Z,4.03
2018-08-22T04:34:38.053Z,2.97
2018-08-22T04:38:40.646Z,5.43
2018-08-22T04:42:43.248Z,5.27
2018-08-22T04:46:45.978Z,4.13
2018-08-22T04:50:48.555Z,4.83
2018-08-22T04:54:51.140Z,6.77
2018-08-22T04:58:53.749Z,9.67
2018-08-22T05:02:56.309Z,7.40
2018-08-22T05:06:58.991Z,5.53
2018-08-22T05:11:01.641Z,7.77
2018-08-22T05:15:04.220Z,4.67
2018-08-22T05:19:06.879Z,4.63
2018-08-22T05:23:09.473Z,7.57
2018-08-22T05:27:12.159Z,6.33
2018-08-22T05:31:14.801Z,4.30
2018-08-22T05:35:17.439Z,5.73
2018-08-22T05:39:20.190Z,7.20
2018-08-22T05:43:22.757Z,7.73
2018-08-22T05:47:25.339Z,8.90
2018-08-22T05:51:27.983Z,8.53
2018-08-22T05:55:30.643Z,5.43
2018-08-22T05:59:33.258Z,11.60
2018-08-22T06:03:35.859Z,7.93
2018-08-22T06:07:38.509Z,8.03
2018-08-22T06:11:42.546Z,5.30
2018-08-22T06:15:45.246Z,7.43
2018-08-22T06:19:48.043Z,6.80
2018-08-22T06:23:50.630Z,6.17
2018-08-22T06:27:53.212Z,8.83
2018-08-22T06:31:55.818Z,10.37
2018-08-22T06:35:58.412Z,10.40
2018-08-22T06:40:01.087Z,9.90
2018-08-22T06:44:03.810Z,14.97
2018-08-22T06:48:07.029Z,8.10
2018-08-22T06:52:09.667Z,9.13
2018-08-22T06:56:12.443Z,14.30
2018-08-22T07:00:15.092Z,10.00
2018-08-22T07:04:17.722Z,10.07
2018-08-22T07:08:20.376Z,9.43
2018-08-22T07:12:22.995Z,7.03
2018-08-22T07:16:25.653Z,9.83
2018-08-22T07:20:28.287Z,6.37
2018-08-22T07:24:30.857Z,11.47
2018-08-22T07:28:33.513Z,11.73
2018-08-22T07:32:36.240Z,8.13
2018-08-22T07:36:38.946Z,8.43
2018-08-22T07:40:41.505Z,7.10
2018-08-22T07:44:44.116Z,8.27
2018-08-22T07:48:46.704Z,12.27
2018-08-22T07:52:53.823Z,10.87
2018-08-22T07:56:56.601Z,8.60
2018-08-22T08:00:59.172Z,9.63
2018-08-22T08:05:01.738Z,7.37
2018-08-22T08:09:07.451Z,9.33
2018-08-22T08:13:15.990Z,7.80
2018-08-22T08:17:18.645Z,5.97
2018-08-22T08:21:21.335Z,5.73
2018-08-22T08:25:23.981Z,9.07
2018-08-22T08:29:26.571Z,5.97
2018-08-22T08:33:29.180Z,6.60
2018-08-22T08:37:31.851Z,8.17
2018-08-22T08:41:34.446Z,7.70
2018-08-22T08:45:38.710Z,5.53
2018-08-22T08:49:41.429Z,6.87
2018-08-22T08:53:43.944Z,5.30
2018-08-22T08:57:46.551Z,7.47
2018-08-22T09:01:49.978Z,7.07
2018-08-22T09:05:52.622Z,9.20
2018-08-22T09:09:55.384Z,5.63
2018-08-22T09:13:57.929Z,7.20
2018-08-22T09:18:00.499Z,5.73
2018-08-22T09:22:03.430Z,5.50
2018-08-22T09:26:06.059Z,4.47
2018-08-22T09:30:08.618Z,6.63
2018-08-22T09:34:11.290Z,7.80
2018-08-22T09:38:13.999Z,5.60
2018-08-22T09:42:16.595Z,8.23
2018-08-22T09:46:19.238Z,6.07
2018-08-22T09:50:21.877Z,6.30
2018-08-22T09:54:24.570Z,6.30
2018-08-22T09:58:27.177Z,5.67
2018-08-22T10:02:29.843Z,6.27
2018-08-22T10:06:36.991Z,4.77
2018-08-22T10:10:39.465Z,8.10
2018-08-22T10:14:42.466Z,6.17
2018-08-22T10:18:45.332Z,9.20
2018-08-22T10:22:47.907Z,5.63
2018-08-22T10:26:50.600Z,7.50
2018-08-22T10:30:53.217Z,7.43
2018-08-22T10:34:55.918Z,7.13
2018-08-22T10:38:58.538Z,6.33
2018-08-22T10:43:01.185Z,7.93
2018-08-22T10:47:03.896Z,7.50
2018-08-22T10:51:07.394Z,5.50
2018-08-22T10:55:10.016Z,6.47
2018-08-22T10:59:12.815Z,5.97
2018-08-22T11:03:15.435Z,6.93
2018-08-22T11:07:18.152Z,6.77
2018-08-22T11:11:20.756Z,5.20
2018-08-22T11:15:23.409Z,6.73
2018-08-22T11:19:25.972Z,5.70
2018-08-22T11:23:40.027Z,33.13
2018-08-22T11:27:54.165Z,9.20
2018-08-22T11:32:08.191Z,10.23
2018-08-22T11:36:09.678Z,8.50
2018-08-22T11:40:12.283Z,12.20
2018-08-22T11:44:14.901Z,5.97
2018-08-22T11:48:17.574Z,6.30
2018-08-22T11:52:20.212Z,6.43
2018-08-22T11:56:22.843Z,6.20
2018-08-22T12:00:25.451Z,6.57
2018-08-22T12:04:28.067Z,6.33
2018-08-22T12:08:30.659Z,5.83
2018-08-22T12:12:33.305Z,12.00
2018-08-22T12:16:35.978Z,9.27
2018-08-22T12:20:38.578Z,7.67
2018-08-22T12:24:41.215Z,7.90
2018-08-22T12:28:44.081Z,6.97
2018-08-22T12:32:47.055Z,6.50
2018-08-22T12:36:49.633Z,6.77
2018-08-22T12:40:52.211Z,6.70
2018-08-22T12:44:54.840Z,26.13
2018-08-22T12:48:57.499Z,7.63
2018-08-22T12:53:00.123Z,9.17
2018-08-22T12:57:02.758Z,11.67
2018-08-22T13:01:06.033Z,8.50
2018-08-22T13:05:08.740Z,9.73
2018-08-22T13:09:11.623Z,9.00
2018-08-22T13:13:14.258Z,9.97
2018-08-22T13:17:16.931Z,6.37
2018-08-22T13:21:19.543Z,6.43
2018-08-22T13:25:22.129Z,7.20
2018-08-22T13:29:24.736Z,7.23
2018-08-22T13:33:27.318Z,9.03
2018-08-22T13:37:29.957Z,8.07
2018-08-22T13:41:32.688Z,7.13
2018-08-22T13:45:35.362Z,13.53
2018-08-22T13:49:38.054Z,6.53
2018-08-22T13:53:40.753Z,6.17
2018-08-22T13:57:43.481Z,6.30
2018-08-22T14:01:46.169Z,10.60
2018-08-22T14:05:48.842Z,6.90
2018-08-22T14:14:01.046Z,19.33
2018-08-22T14:18:03.733Z,8.40
2018-08-22T14:22:06.391Z,9.27
2018-08-22T14:26:09.054Z,8.80
2018-08-22T14:30:11.779Z,8.50
2018-08-22T14:34:14.356Z,10.80
2018-08-22T14:38:16.972Z,9.30
2018-08-22T14:42:19.613Z,7.10
2018-08-22T14:46:29.003Z,8.57
2018-08-22T14:50:31.611Z,7.17
2018-08-22T14:54:34.230Z,8.20
2018-08-22T14:58:36.855Z,7.47
2018-08-22T15:02:40.312Z,11.37
2018-08-22T15:06:42.839Z,10.53
2018-08-22T15:10:46.295Z,11.70
2018-08-22T15:14:49.008Z,12.13
2018-08-22T15:18:51.652Z,7.40
2018-08-22T15:22:55.025Z,11.13
2018-08-22T15:26:57.662Z,9.63
2018-08-22T15:31:00.289Z,13.70
2018-08-22T15:35:02.862Z,13.93
2018-08-22T15:39:08.716Z,11.33
2018-08-22T15:43:11.455Z,10.37
2018-08-22T15:47:14.157Z,11.30
2018-08-22T15:51:16.770Z,12.77
2018-08-22T15:55:19.436Z,8.70
2018-08-22T15:59:22.051Z,12.33
2018-08-22T16:03:25.517Z,10.50
2018-08-22T16:07:28.093Z,9.67
2018-08-22T16:11:30.720Z,9.47
2018-08-22T16:15:35.825Z,10.50
2018-08-22T16:19:38.749Z,10.47
2018-08-22T16:23:41.725Z,11.77
2018-08-22T16:27:50.283Z,11.10
2018-08-22T16:31:55.093Z,12.17
2018-08-22T16:35:58.173Z,15.40
2018-08-22T16:40:01.003Z,15.13
2018-08-22T16:44:03.848Z,15.10
2018-08-22T16:48:07.016Z,12.60
2018-08-22T16:52:09.845Z,12.97
2018-08-22T16:56:12.547Z,13.63
2018-08-22T17:00:15.457Z,12.87
2018-08-22T17:04:18.210Z,12.80
2018-08-22T17:08:20.792Z,16.67
2018-08-22T17:12:23.387Z,11.53
2018-08-22T17:16:26.210Z,16.77
2018-08-22T17:20:28.826Z,13.37
2018-08-22T17:24:31.421Z,12.70
2018-08-22T17:28:37.965Z,9.00
2018-08-22T17:32:40.554Z,13.33
2018-08-22T17:36:43.610Z,14.50
2018-08-22T17:40:46.232Z,16.20
2018-08-22T17:44:48.904Z,13.43
2018-08-22T17:48:51.544Z,16.80
2018-08-22T17:52:54.214Z,16.17
2018-08-22T17:57:09.810Z,15.87
2018-08-22T18:01:12.433Z,15.40
2018-08-22T18:05:14.983Z,16.90
2018-08-22T18:09:17.564Z,13.77
2018-08-22T18:13:22.202Z,15.60
2018-08-22T18:17:24.858Z,14.37
2018-08-22T18:21:33.358Z,14.33
2018-08-22T18:25:44.498Z,15.43
2018-08-22T18:29:47.327Z,15.03
2018-08-22T18:33:56.100Z,17.13
2018-08-22T18:37:58.843Z,12.67
2018-08-22T18:42:01.441Z,13.90
2018-08-22T18:46:05.775Z,15.83
2018-08-22T18:50:08.651Z,14.33
2018-08-22T18:54:11.414Z,16.17
2018-08-22T18:58:14.088Z,14.67
2018-08-22T19:02:16.745Z,16.03
2018-08-22T19:06:19.646Z,15.23
2018-08-22T19:10:22.928Z,18.43
2018-08-22T19:14:37.800Z,17.57
2018-08-22T19:18:40.425Z,17.10
2018-08-22T19:22:43.179Z,15.33
2018-08-22T19:26:45.892Z,16.03
2018-08-22T19:30:48.667Z,17.70
2018-08-22T19:34:54.543Z,17.57
2018-08-22T19:38:57.191Z,18.63
2018-08-22T19:43:00.115Z,17.37
2018-08-22T19:47:02.696Z,19.03
2018-08-22T19:51:05.177Z,23.90
2018-08-22T19:55:07.962Z,24.53
2018-08-22T19:59:11.375Z,17.30
2018-08-22T20:03:14.740Z,19.17
2018-08-22T20:07:17.380Z,27.53
2018-08-22T20:11:20.266Z,21.90
2018-08-22T20:15:23.289Z,19.80
2018-08-22T20:19:30.506Z,22.33
2018-08-22T20:23:33.226Z,23.10
2018-08-22T20:27:35.903Z,25.63
2018-08-22T20:31:38.495Z,24.07
2018-08-22T20:35:42.224Z,28.27
2018-08-22T20:39:45.113Z,19.43
2018-08-22T20:43:47.787Z,20.67
2018-08-22T20:47:54.882Z,27.50
2018-08-22T20:51:57.537Z,27.00
2018-08-22T20:56:00.125Z,28.07
2018-08-22T21:00:04.119Z,37.57
2018-08-22T21:04:06.840Z,34.83
2018-08-22T21:08:09.464Z,36.67
2018-08-22T21:12:12.093Z,30.93
2018-08-22T21:16:14.676Z,36.13
2018-08-22T21:20:23.297Z,42.50
2018-08-22T21:24:25.928Z,40.93
2018-08-22T21:28:34.270Z,39.60
2018-08-22T21:32:36.831Z,42.87
2018-08-22T21:36:41.035Z,43.23
2018-08-22T21:40:43.625Z,40.53
2018-08-22T21:44:46.248Z,35.20
2018-08-22T21:48:48.945Z,42.20
2018-08-22T21:52:54.021Z,35.33
2018-08-22T21:56:56.661Z,42.60
2018-08-22T22:00:59.324Z,55.43
2018-08-22T22:05:01.987Z,51.17
2018-08-22T22:09:05.728Z,53.30
2018-08-22T22:13:08.859Z,56.07
2018-08-22T22:17:11.497Z,40.17
2018-08-22T22:21:14.983Z,43.83
2018-08-22T22:25:17.528Z,44.40
2018-08-22T22:29:23.430Z,47.90
2018-08-22T22:33:26.099Z,45.70
2018-08-22T22:37:28.729Z,50.37
2018-08-22T22:41:31.396Z,52.07
2018-08-22T22:45:33.978Z,51.27
2018-08-22T22:49:36.601Z,39.17
2018-08-22T22:53:39.206Z,56.87
2018-08-22T22:57:43.167Z,54.77
2018-08-22T23:01:45.910Z,52.43
2018-08-22T23:05:48.495Z,60.07
2018-08-22T23:09:52.519Z,37.77
2018-08-22T23:13:55.310Z,54.93
2018-08-22T23:17:59.173Z,51.70
2018-08-22T23:22:01.769Z,65.07
2018-08-22T23:26:12.133Z,45.97
2018-08-22T23:30:21.324Z,46.50
2018-08-22T23:34:23.936Z,40.87
2018-08-22T23:38:30.602Z,54.43
2018-08-22T23:42:33.239Z,66.60
2018-08-22T23:46:35.855Z,51.80
2018-08-22T23:50:50.186Z,65.90
2018-08-22T23:54:52.961Z,69.93
2018-08-22T23:58:56.335Z,56.67
